Time;durP1;ratioP1;P1;durP2;ratioP2;P2;SDS_P1;SDS_P2;PMS_P1;PMS_P2;Temp;Humidity;BMP_temperature;BMP_pressure;BME280_temperature;BME280_humidity;BME280_pressure;Samples;Min_cycle;Max_cycle;Signal;HPM_P1;HPM_P2
2022/12/16 00:01:16;;;;;;;48.58;18.15;;;;;;;;;;4989059;28;20116;-89
2022/12/16 00:03:46;;;;;;;42.92;17.30;;;;;;;;;;4994304;28;20519;-89
2022/12/16 00:06:12;;;;;;;37.92;17.08;;;;;;;;;;4996821;28;20039;-89
2022/12/16 00:08:39;;;;;;;39.22;17.98;;;;;;;;;;4973395;28;20044;-89
2022/12/16 00:11:06;;;;;;;37.70;17.55;;;;;;;;;;4991902;28;20045;-89
2022/12/16 00:13:33;;;;;;;41.10;16.67;;;;;;;;;;4979033;28;20509;-89
2022/12/16 00:15:59;;;;;;;36.22;16.50;;;;;;;;;;4992267;28;20022;-90
2022/12/16 00:18:25;;;;;;;31.55;15.55;;;;;;;;;;4988824;28;20133;-89
2022/12/16 00:20:53;;;;;;;30.20;15.52;;;;;;;;;;4977900;28;20041;-89
2022/12/16 00:23:19;;;;;;;36.75;15.88;;;;;;;;;;4989822;28;20062;-88
2022/12/16 00:25:45;;;;;;;38.33;16.67;;;;;;;;;;4993317;28;20417;-89
2022/12/16 00:28:12;;;;;;;44.75;15.48;;;;;;;;;;5004753;28;21396;-88
2022/12/16 00:30:39;;;;;;;38.50;14.90;;;;;;;;;;4989754;28;20067;-89
2022/12/16 00:33:05;;;;;;;34.47;16.35;;;;;;;;;;5006896;28;20068;-89
2022/12/16 00:35:31;;;;;;;32.60;14.30;;;;;;;;;;5004256;28;20080;-89
2022/12/16 00:38:04;;;;;;;28.05;13.90;;;;;;;;;;4987837;28;20038;-89
2022/12/16 00:40:30;;;;;;;33.05;14.07;;;;;;;;;;5006889;28;20033;-88
2022/12/16 00:42:56;;;;;;;29.38;12.93;;;;;;;;;;4986427;28;20464;-89
2022/12/16 00:45:22;;;;;;;24.90;11.82;;;;;;;;;;4988417;28;20034;-89
2022/12/16 00:47:49;;;;;;;22.33;10.82;;;;;;;;;;4973627;28;20397;-89
2022/12/16 00:50:15;;;;;;;25.42;10.50;;;;;;;;;;4993447;28;20064;-90
2022/12/16 00:52:41;;;;;;;22.50;9.32;;;;;;;;;;4974042;28;20038;-88
2022/12/16 00:55:08;;;;;;;15.90;7.78;;;;;;;;;;4981115;28;20043;-88
2022/12/16 00:57:34;;;;;;;20.02;7.00;;;;;;;;;;5007141;28;20026;-90
2022/12/16 01:00:00;;;;;;;26.35;6.18;;;;;;;;;;4981333;28;20041;-89
2022/12/16 01:02:26;;;;;;;10.88;5.55;;;;;;;;;;4989228;28;20093;-88
2022/12/16 01:04:52;;;;;;;10.65;5.70;;;;;;;;;;4985060;28;20050;-88
2022/12/16 01:07:18;;;;;;;17.45;4.85;;;;;;;;;;4981875;28;20478;-89
2022/12/16 01:09:44;;;;;;;17.23;5.90;;;;;;;;;;4992210;28;20085;-89
2022/12/16 01:12:10;;;;;;;19.33;5.30;;;;;;;;;;4972325;28;20029;-88
2022/12/16 01:14:36;;;;;;;20.13;4.80;;;;;;;;;;4970913;28;20497;-89
2022/12/16 01:17:02;;;;;;;13.10;4.32;;;;;;;;;;4973758;28;20038;-89
2022/12/16 01:19:28;;;;;;;11.98;4.25;;;;;;;;;;4972938;28;20026;-89
2022/12/16 01:21:54;;;;;;;13.35;4.30;;;;;;;;;;4974286;28;20554;-89
2022/12/16 01:24:20;;;;;;;14.23;4.20;;;;;;;;;;4991349;28;20087;-89
2022/12/16 01:26:49;;;;;;;8.80;4.10;;;;;;;;;;5003453;28;20382;-89
2022/12/16 01:29:15;;;;;;;12.15;4.60;;;;;;;;;;4971862;28;20479;-90
2022/12/16 01:31:41;;;;;;;8.48;4.00;;;;;;;;;;4978418;28;20030;-88
2022/12/16 01:34:08;;;;;;;30.70;4.78;;;;;;;;;;4973806;28;20068;-89
2022/12/16 01:36:34;;;;;;;20.02;4.68;;;;;;;;;;4989569;28;20061;-89
2022/12/16 01:39:00;;;;;;;9.98;3.63;;;;;;;;;;4976344;28;20033;-88
2022/12/16 01:41:27;;;;;;;15.40;4.15;;;;;;;;;;4992154;28;20038;-88
2022/12/16 01:43:53;;;;;;;13.15;4.78;;;;;;;;;;4997665;28;20553;-89
2022/12/16 01:46:24;;;;;;;11.48;4.30;;;;;;;;;;5002825;28;20478;-89
2022/12/16 01:49:06;;;;;;;10.13;4.10;;;;;;;;;;5003462;28;20102;-90
2022/12/16 01:51:32;;;;;;;9.32;4.72;;;;;;;;;;4992384;28;20038;-89
2022/12/16 01:54:27;;;;;;;8.77;3.88;;;;;;;;;;4990863;28;20084;-88
2022/12/16 01:57:00;;;;;;;6.10;3.97;;;;;;;;;;4973366;28;20046;-89
2022/12/16 01:59:28;;;;;;;11.57;3.35;;;;;;;;;;4988389;28;20120;-89
2022/12/16 02:01:54;;;;;;;8.80;3.45;;;;;;;;;;4997494;28;20083;-88
2022/12/16 02:04:20;;;;;;;5.55;3.08;;;;;;;;;;4973585;28;20037;-88
2022/12/16 02:06:46;;;;;;;9.70;3.78;;;;;;;;;;4999193;28;20027;-88
2022/12/16 02:09:17;;;;;;;5.85;3.55;;;;;;;;;;4989698;28;20053;-89
2022/12/16 02:12:01;;;;;;;8.68;3.35;;;;;;;;;;4981596;28;20022;-89
2022/12/16 02:14:27;;;;;;;8.13;3.50;;;;;;;;;;4991000;28;20029;-89
2022/12/16 02:16:53;;;;;;;5.97;3.03;;;;;;;;;;4983310;28;20036;-90
2022/12/16 02:19:19;;;;;;;10.30;3.60;;;;;;;;;;4988734;28;20030;-91
2022/12/16 02:21:50;;;;;;;5.60;3.58;;;;;;;;;;4994179;28;20034;-88
2022/12/16 02:24:16;;;;;;;7.57;2.58;;;;;;;;;;4985927;28;20166;-89
2022/12/16 02:26:51;;;;;;;13.23;3.17;;;;;;;;;;4985728;28;20125;-89
2022/12/16 02:29:36;;;;;;;11.32;3.22;;;;;;;;;;4995074;28;20640;-88
2022/12/16 02:32:02;;;;;;;8.77;3.20;;;;;;;;;;4984404;28;20046;-88
2022/12/16 02:34:43;;;;;;;9.05;3.30;;;;;;;;;;4988959;28;20463;-88
2022/12/16 02:37:28;;;;;;;5.53;2.92;;;;;;;;;;4978149;28;20097;-89
2022/12/16 02:40:05;;;;;;;24.27;4.55;;;;;;;;;;5000528;28;20030;-91
2022/12/16 02:42:42;;;;;;;9.38;2.55;;;;;;;;;;4991360;28;20393;-88
2022/12/16 02:45:11;;;;;;;5.53;2.50;;;;;;;;;;4972399;28;20351;-89
2022/12/16 02:47:38;;;;;;;8.52;3.88;;;;;;;;;;5000320;28;20117;-89
2022/12/16 02:50:06;;;;;;;7.32;3.55;;;;;;;;;;4988965;28;20137;-89
2022/12/16 02:52:35;;;;;;;9.63;3.47;;;;;;;;;;4997493;28;20025;-88
2022/12/16 02:55:03;;;;;;;7.45;3.33;;;;;;;;;;4986379;28;20038;-89
2022/12/16 02:57:48;;;;;;;12.70;4.07;;;;;;;;;;4989558;28;20022;-89
2022/12/16 03:00:16;;;;;;;10.30;4.38;;;;;;;;;;4986623;28;20497;-88
2022/12/16 03:02:42;;;;;;;15.73;4.72;;;;;;;;;;4986698;28;20041;-88
2022/12/16 03:05:24;;;;;;;12.90;4.78;;;;;;;;;;4980074;28;20153;-88
2022/12/16 03:07:52;;;;;;;8.75;4.50;;;;;;;;;;4989360;28;20172;-89
2022/12/16 03:10:19;;;;;;;9.63;5.15;;;;;;;;;;4983641;28;20073;-88
2022/12/16 03:12:46;;;;;;;11.55;5.65;;;;;;;;;;4988210;28;20026;-88
2022/12/16 03:15:15;;;;;;;17.92;6.53;;;;;;;;;;4990751;28;20119;-88
2022/12/16 03:17:44;;;;;;;18.85;7.50;;;;;;;;;;4988759;28;20033;-89
2022/12/16 03:20:13;;;;;;;16.08;7.50;;;;;;;;;;4992830;28;20033;-88
2022/12/16 03:22:41;;;;;;;19.73;9.10;;;;;;;;;;4985364;28;20033;-88
2022/12/16 03:25:10;;;;;;;19.90;7.95;;;;;;;;;;4985266;28;20092;-88
2022/12/16 03:27:42;;;;;;;21.50;11.60;;;;;;;;;;4990208;28;20033;-89
2022/12/16 03:30:12;;;;;;;18.90;10.27;;;;;;;;;;4990776;28;20034;-89
2022/12/16 03:32:48;;;;;;;33.85;12.63;;;;;;;;;;4987281;28;20426;-89
2022/12/16 03:35:18;;;;;;;20.98;10.27;;;;;;;;;;4990694;28;20037;-89
2022/12/16 03:37:46;;;;;;;34.38;13.38;;;;;;;;;;4982444;28;20045;-89
2022/12/16 03:40:12;;;;;;;31.65;13.80;;;;;;;;;;4982131;28;20092;-89
2022/12/16 03:42:39;;;;;;;40.97;14.63;;;;;;;;;;4982787;28;20493;-88
2022/12/16 03:45:07;;;;;;;33.75;15.05;;;;;;;;;;4994207;28;20088;-89
2022/12/16 03:47:33;;;;;;;34.10;14.55;;;;;;;;;;4990543;28;20029;-89
2022/12/16 03:49:59;;;;;;;32.92;16.10;;;;;;;;;;4998819;28;20044;-90
2022/12/16 03:52:25;;;;;;;33.58;15.82;;;;;;;;;;4963753;28;20027;-90
2022/12/16 03:54:51;;;;;;;35.20;16.25;;;;;;;;;;4972998;28;20053;-89
2022/12/16 03:57:18;;;;;;;39.65;16.33;;;;;;;;;;4966884;28;20026;-89
2022/12/16 03:59:44;;;;;;;39.22;16.45;;;;;;;;;;4984720;28;20034;-90
2022/12/16 04:02:10;;;;;;;42.70;18.00;;;;;;;;;;4988454;28;20026;-88
2022/12/16 04:04:36;;;;;;;41.60;17.85;;;;;;;;;;4987162;28;20544;-88
2022/12/16 04:07:20;;;;;;;38.47;15.40;;;;;;;;;;4987761;28;20064;-89
2022/12/16 04:09:47;;;;;;;36.65;17.55;;;;;;;;;;4987344;28;20030;-89
2022/12/16 04:26:09;;;;;;;45.10;19.40;;;;;;;;;;5004397;28;20049;-88
2022/12/16 04:28:35;;;;;;;56.22;20.40;;;;;;;;;;4974515;28;20052;-87
2022/12/16 04:31:01;;;;;;;39.95;19.27;;;;;;;;;;4981026;28;20490;-88
